createdAt,value
2022-08-05T00:01:29.275Z,16.70
2022-08-05T00:06:42.104Z,16.63
2022-08-05T00:11:55.544Z,16.61
2022-08-05T00:17:03.077Z,16.56
2022-08-05T00:22:11.450Z,16.51
2022-08-05T00:27:17.839Z,16.45
2022-08-05T00:32:25.756Z,16.42
2022-08-05T00:37:51.158Z,16.35
2022-08-05T00:43:00.138Z,16.28
2022-08-05T00:48:07.173Z,16.25
2022-08-05T00:54:01.456Z,16.20
2022-08-05T00:58:39.605Z,16.15
2022-08-05T01:03:49.990Z,16.06
2022-08-05T01:08:56.013Z,16.04
2022-08-05T01:14:10.890Z,16.05
2022-08-05T01:20:01.683Z,16.00
2022-08-05T01:25:53.426Z,16.02
2022-08-05T01:31:09.990Z,16.08
2022-08-05T01:36:21.098Z,16.09
2022-08-05T01:41:37.593Z,16.06
2022-08-05T01:46:46.620Z,16.01
2022-08-05T01:51:58.268Z,16.02
2022-08-05T01:58:13.860Z,16.00
2022-08-05T02:02:34.165Z,15.93
2022-08-05T02:07:59.866Z,15.83
2022-08-05T02:13:16.276Z,15.78
2022-08-05T02:18:34.208Z,15.79
2022-08-05T02:23:46.440Z,15.78
2022-08-05T02:28:56.095Z,15.77
2022-08-05T02:34:09.255Z,15.76
2022-08-05T02:39:21.467Z,15.75
2022-08-05T02:44:28.858Z,15.73
2022-08-05T02:49:40.424Z,15.69
2022-08-05T02:54:50.686Z,15.78
2022-08-05T02:59:59.484Z,15.78
2022-08-05T03:05:08.705Z,15.71
2022-08-05T03:10:22.127Z,15.66
2022-08-05T03:15:30.530Z,15.62
2022-08-05T03:20:42.611Z,15.61
2022-08-05T03:26:04.951Z,15.60
2022-08-05T03:31:55.845Z,15.61
2022-08-05T03:36:47.586Z,15.64
2022-08-05T03:41:58.546Z,15.69
2022-08-05T03:47:04.690Z,15.76
2022-08-05T03:52:38.507Z,15.86
2022-08-05T03:57:47.920Z,16.00
2022-08-05T04:02:59.243Z,16.15
2022-08-05T04:08:14.722Z,16.28
2022-08-05T04:13:50.336Z,16.48
2022-08-05T04:18:58.094Z,16.70
2022-08-05T04:24:08.866Z,17.10
2022-08-05T04:29:15.350Z,17.51
2022-08-05T04:34:33.611Z,17.89
2022-08-05T04:39:40.607Z,18.53
2022-08-05T04:44:46.412Z,19.23
2022-08-05T04:50:02.839Z,20.00
2022-08-05T04:55:17.700Z,21.29
2022-08-05T05:00:44.193Z,25.04
2022-08-05T05:06:40.556Z,28.34
2022-08-05T05:11:22.814Z,31.34
2022-08-05T05:16:47.946Z,33.59
2022-08-05T05:21:56.329Z,35.38
2022-08-05T05:27:02.729Z,36.97
2022-08-05T05:32:12.451Z,38.39
2022-08-05T05:37:21.624Z,39.47
2022-08-05T05:42:43.110Z,40.07
2022-08-05T05:48:08.071Z,40.43
2022-08-05T05:53:21.376Z,41.21
2022-08-05T05:58:32.090Z,41.94
2022-08-05T06:03:54.192Z,42.35
2022-08-05T06:09:07.599Z,42.61
2022-08-05T06:14:13.855Z,43.20
2022-08-05T06:19:34.100Z,43.63
2022-08-05T06:24:48.117Z,44.07
2022-08-05T06:30:04.425Z,44.73
2022-08-05T06:35:21.662Z,45.10
2022-08-05T06:40:32.638Z,45.50
2022-08-05T06:46:03.444Z,45.64
2022-08-05T06:51:09.644Z,45.85
2022-08-05T06:56:26.751Z,45.65
2022-08-05T07:01:33.114Z,45.59
2022-08-05T07:06:39.260Z,45.59
2022-08-05T07:11:51.477Z,45.36
2022-08-05T07:17:58.404Z,45.77
2022-08-05T07:22:30.159Z,45.95
2022-08-05T07:27:56.299Z,45.22
2022-08-05T07:33:05.536Z,45.28
2022-08-05T07:38:32.533Z,45.48
2022-08-05T07:43:41.072Z,45.83
2022-08-05T07:49:02.152Z,46.23
2022-08-05T07:54:12.634Z,46.49
2022-08-05T07:59:21.945Z,46.58
2022-08-05T08:04:38.381Z,46.70
2022-08-05T08:09:44.372Z,46.23
2022-08-05T08:14:50.382Z,46.16
2022-08-05T08:20:23.059Z,46.24
2022-08-05T08:25:26.952Z,46.31
2022-08-05T08:30:49.822Z,46.50
2022-08-05T08:36:18.457Z,46.05
2022-08-05T08:41:26.317Z,45.87
2022-08-05T08:46:51.744Z,45.80
2022-08-05T08:52:13.647Z,45.14
2022-08-05T08:57:48.195Z,45.25
2022-08-05T09:02:56.746Z,45.62
2022-08-05T09:08:05.593Z,45.43
2022-08-05T09:13:17.062Z,45.12
2022-08-05T09:18:23.139Z,45.32
2022-08-05T09:23:37.498Z,45.12
2022-08-05T09:28:49.827Z,44.98
2022-08-05T09:34:01.109Z,44.88
2022-08-05T09:39:17.959Z,44.80
2022-08-05T09:44:37.372Z,44.22
2022-08-05T09:50:01.473Z,44.10
2022-08-05T09:55:56.318Z,43.90
2022-08-05T10:00:36.732Z,43.31
2022-08-05T10:05:44.739Z,43.18
2022-08-05T10:10:54.830Z,42.84
2022-08-05T10:16:01.013Z,42.33
2022-08-05T10:21:15.781Z,42.72
2022-08-05T10:26:24.260Z,42.47
2022-08-05T10:32:54.909Z,42.31
2022-08-05T10:37:06.264Z,42.09
2022-08-05T10:42:18.779Z,41.99
2022-08-05T10:47:56.119Z,41.97
2022-08-05T10:53:34.637Z,41.62
2022-08-05T10:59:11.488Z,41.76
2022-08-05T11:04:21.832Z,41.48
2022-08-05T11:09:39.349Z,41.33
2022-08-05T11:15:11.750Z,41.08
2022-08-05T11:20:41.642Z,40.71
2022-08-05T11:26:04.312Z,40.60
2022-08-05T11:31:57.639Z,40.42
2022-08-05T11:38:29.209Z,40.30
2022-08-05T11:42:37.680Z,39.67
2022-08-05T11:47:48.903Z,39.19
2022-08-05T11:52:58.207Z,38.91
2022-08-05T11:58:08.315Z,38.64
2022-08-05T12:03:29.328Z,38.14
2022-08-05T12:08:50.963Z,37.60
2022-08-05T12:13:59.495Z,37.23
2022-08-05T12:20:17.008Z,37.18
2022-08-05T12:24:49.340Z,37.18
2022-08-05T12:30:04.290Z,37.09
2022-08-05T12:35:11.379Z,36.96
2022-08-05T12:40:28.730Z,36.81
2022-08-05T12:45:42.660Z,36.93
2022-08-05T12:52:11.051Z,36.79
2022-08-05T12:56:50.885Z,36.50
2022-08-05T13:02:07.593Z,36.38
2022-08-05T13:07:17.264Z,36.34
2022-08-05T13:12:28.378Z,36.26
2022-08-05T13:17:41.423Z,36.27
2022-08-05T13:22:50.790Z,35.99
2022-08-05T13:27:57.626Z,35.89
2022-08-05T13:33:03.502Z,35.95
2022-08-05T13:38:10.206Z,35.73
2022-08-05T13:43:44.466Z,35.41
2022-08-05T13:48:57.826Z,35.18
2022-08-05T13:54:12.666Z,35.06
2022-08-05T13:59:24.293Z,34.86
2022-08-05T14:04:52.809Z,34.59
2022-08-05T14:09:59.383Z,34.53
2022-08-05T14:16:07.404Z,34.59
2022-08-05T14:20:36.097Z,34.33
2022-08-05T14:25:45.158Z,34.01
2022-08-05T14:30:51.967Z,33.72
2022-08-05T14:35:59.739Z,33.57
2022-08-05T14:41:08.279Z,33.40
2022-08-05T14:46:14.292Z,33.16
2022-08-05T14:51:21.044Z,32.98
2022-08-05T14:56:27.558Z,32.77
2022-08-05T15:01:49.060Z,32.60
2022-08-05T15:06:57.047Z,32.44
2022-08-05T15:12:03.880Z,32.39
2022-08-05T15:17:47.439Z,32.37
2022-08-05T15:22:37.048Z,32.31
2022-08-05T15:27:51.874Z,32.21
2022-08-05T15:33:00.863Z,32.08
2022-08-05T15:38:34.522Z,31.98
2022-08-05T15:43:45.452Z,31.90
2022-08-05T15:48:58.006Z,31.77
2022-08-05T15:54:08.415Z,31.62
2022-08-05T15:59:21.872Z,31.48
2022-08-05T16:04:28.406Z,31.30
2022-08-05T16:09:34.363Z,31.15
2022-08-05T16:14:42.846Z,31.12
2022-08-05T16:20:05.692Z,31.05
2022-08-05T16:25:15.194Z,30.99
2022-08-05T16:30:26.060Z,30.89
2022-08-05T16:35:43.168Z,30.79
2022-08-05T16:40:55.226Z,30.67
2022-08-05T16:46:24.466Z,30.57
2022-08-05T16:51:42.607Z,30.50
2022-08-05T16:56:57.352Z,30.41
2022-08-05T17:02:04.186Z,30.32
2022-08-05T17:07:11.453Z,30.16
2022-08-05T17:12:18.026Z,30.03
2022-08-05T17:17:42.047Z,29.94
2022-08-05T17:22:55.151Z,29.82
2022-08-05T17:28:01.743Z,29.73
2022-08-05T17:33:08.001Z,29.54
2022-08-05T17:38:14.825Z,29.33
2022-08-05T17:43:50.651Z,29.11
2022-08-05T17:48:49.744Z,28.78
2022-08-05T17:53:58.126Z,28.45
2022-08-05T17:59:04.093Z,28.08
2022-08-05T18:04:11.755Z,27.68
2022-08-05T18:09:18.053Z,27.30
2022-08-05T18:14:26.541Z,26.85
2022-08-05T18:19:33.800Z,26.45
2022-08-05T18:24:40.466Z,26.15
2022-08-05T18:29:52.031Z,25.96
2022-08-05T18:35:00.284Z,25.74
2022-08-05T18:41:50.447Z,25.49
2022-08-05T18:45:41.578Z,25.20
2022-08-05T18:52:05.715Z,24.90
2022-08-05T18:56:34.098Z,24.68
2022-08-05T19:01:47.595Z,24.56
2022-08-05T19:07:00.236Z,24.44
2022-08-05T19:12:07.763Z,24.27
2022-08-05T19:17:17.839Z,24.14
2022-08-05T19:22:27.521Z,24.02
2022-08-05T19:27:33.751Z,23.81
2022-08-05T19:32:40.088Z,23.69
2022-08-05T19:38:04.765Z,23.64
2022-08-05T19:44:04.707Z,23.56
2022-08-05T19:48:38.827Z,23.46
2022-08-05T19:54:03.380Z,23.32
2022-08-05T19:59:51.312Z,23.18
2022-08-05T20:05:00.142Z,23.07
2022-08-05T20:10:14.009Z,23.00
2022-08-05T20:15:52.638Z,22.91
2022-08-05T20:20:56.796Z,22.76
2022-08-05T20:26:02.841Z,22.61
2022-08-05T20:31:08.914Z,22.50
2022-08-05T20:36:16.402Z,22.40
2022-08-05T20:41:27.373Z,22.32
2022-08-05T20:46:49.561Z,22.18
2022-08-05T20:51:57.627Z,22.14
2022-08-05T20:57:04.044Z,22.10
2022-08-05T21:02:10.865Z,22.04
2022-08-05T21:07:17.030Z,22.07
2022-08-05T21:12:26.046Z,22.06
2022-08-05T21:17:33.469Z,22.01
2022-08-05T21:22:42.313Z,21.96
2022-08-05T21:27:48.335Z,21.94
2022-08-05T21:32:58.666Z,21.89
2022-08-05T21:38:04.535Z,21.85
2022-08-05T21:43:17.888Z,21.79
2022-08-05T21:48:32.422Z,21.77
2022-08-05T21:53:39.811Z,21.71
2022-08-05T21:58:57.024Z,21.66
2022-08-05T22:04:04.096Z,21.60
2022-08-05T22:09:14.636Z,21.54
2022-08-05T22:14:35.028Z,21.44
2022-08-05T22:20:02.501Z,21.31
2022-08-05T22:26:10.085Z,21.26
2022-08-05T22:31:23.698Z,21.20
2022-08-05T22:36:37.073Z,21.12
2022-08-05T22:42:09.721Z,21.01
2022-08-05T22:47:11.161Z,20.92
2022-08-05T22:52:30.170Z,20.89
2022-08-05T22:57:38.574Z,20.83
2022-08-05T23:02:46.947Z,20.72
2022-08-05T23:07:54.182Z,20.68
2022-08-05T23:13:01.340Z,20.63
2022-08-05T23:18:11.685Z,20.62
2022-08-05T23:23:22.022Z,20.62
2022-08-05T23:28:28.817Z,20.54
2022-08-05T23:34:05.657Z,20.45
2022-08-05T23:39:01.088Z,20.38
2022-08-05T23:44:08.862Z,20.28
2022-08-05T23:49:16.433Z,20.18
2022-08-05T23:54:29.854Z,20.12
